Terminal Aerodrome Forecast
Issued by NWS

Home | Current Version | Previous Version | Text Only | Print | Product List | Glossary Off
Versions: 1 2 3 4 5 6 7 8 9 10 11 12 13 14 15 16 17 18 19 20

000
FTUS43 KBIS 301739
TAFJMS
TAF
KJMS 301739Z 3018/3118 17014G20KT P6SM BKN250
     FM302000 18020G28KT P6SM SCT250
     FM310200 17015KT P6SM SCT250
     FM310900 19012KT P6SM SCT080 BKN250
     FM311500 26015G23KT P6SM SCT080=

USA.gov is the U.S. government's official web portal to all federal, state and local government web resources and services.